createdAt,value
2023-01-17T00:03:46.950Z,3.34
2023-01-17T00:16:45.848Z,3.42
2023-01-17T00:28:34.820Z,3.49
2023-01-17T00:44:26.721Z,3.58
2023-01-17T00:47:56.860Z,3.57
2023-01-17T00:51:43.274Z,3.57
2023-01-17T01:03:26.210Z,3.57
2023-01-17T01:07:12.306Z,3.54
2023-01-17T01:40:01.286Z,3.60
2023-01-17T01:52:14.969Z,3.64
2023-01-17T02:00:36.659Z,3.68
2023-01-17T02:14:21.678Z,3.69
2023-01-17T02:26:24.358Z,3.70
2023-01-17T02:30:22.752Z,3.69
2023-01-17T03:04:53.617Z,3.59
2023-01-17T03:09:24.903Z,3.60
2023-01-17T05:08:34.259Z,3.80
2023-01-17T05:11:01.321Z,4.02
2023-01-17T05:13:28.239Z,4.08
2023-01-17T05:15:57.996Z,4.10
2023-01-17T05:18:25.107Z,4.12
2023-01-17T05:20:52.032Z,4.14
2023-01-17T05:23:19.022Z,4.13
2023-01-17T05:25:45.874Z,4.11
2023-01-17T05:28:13.019Z,4.12
2023-01-17T05:30:39.977Z,4.10
2023-01-17T05:33:08.110Z,4.10
2023-01-17T05:35:34.999Z,4.09
2023-01-17T05:38:02.130Z,4.10
2023-01-17T05:40:30.902Z,4.10
2023-01-17T05:42:58.915Z,4.10
2023-01-17T05:45:26.843Z,4.10
2023-01-17T05:47:54.265Z,4.09
2023-01-17T05:50:24.170Z,4.10
2023-01-17T05:53:02.599Z,4.11
2023-01-17T05:55:30.248Z,4.11
2023-01-17T05:57:57.208Z,4.10
2023-01-17T06:00:24.400Z,4.09
2023-01-17T06:02:53.999Z,4.10
2023-01-17T06:05:21.455Z,4.11
2023-01-17T06:07:48.343Z,4.13
2023-01-17T06:10:15.796Z,4.13
2023-01-17T06:12:43.355Z,4.13
2023-01-17T06:15:10.715Z,4.13
2023-01-17T06:17:43.556Z,4.15
2023-01-17T06:20:11.529Z,4.16
2023-01-17T06:22:38.804Z,4.17
2023-01-17T06:25:05.768Z,4.18
2023-01-17T06:27:32.632Z,4.18
2023-01-17T06:30:19.416Z,4.20
2023-01-17T06:32:52.448Z,4.20
2023-01-17T06:35:19.795Z,4.21
2023-01-17T06:37:46.580Z,4.21
2023-01-17T06:40:13.614Z,4.22
2023-01-17T06:42:40.772Z,4.22
2023-01-17T06:45:08.423Z,4.21
2023-01-17T06:47:39.255Z,4.22
2023-01-17T06:50:07.249Z,4.23
2023-01-17T06:52:34.164Z,4.25
2023-01-17T06:55:01.147Z,4.25
2023-01-17T06:57:28.076Z,4.26
2023-01-17T06:59:54.834Z,4.28
2023-01-17T07:02:21.744Z,4.29
2023-01-17T07:04:48.608Z,4.30
2023-01-17T07:07:15.507Z,4.30
2023-01-17T07:09:42.489Z,4.31
2023-01-17T07:12:09.631Z,4.31
2023-01-17T07:14:36.556Z,4.31
2023-01-17T07:17:04.086Z,4.32
2023-01-17T07:19:30.985Z,4.32
2023-01-17T07:21:57.894Z,4.33
2023-01-17T07:24:24.842Z,4.34
2023-01-17T07:26:51.786Z,4.34
2023-01-17T07:29:18.998Z,4.33
2023-01-17T07:31:45.984Z,4.34
2023-01-17T07:34:12.944Z,4.34
2023-01-17T07:36:39.913Z,4.35
2023-01-17T07:39:06.747Z,4.35
2023-01-17T07:41:35.943Z,4.36
2023-01-17T07:44:04.614Z,4.37
2023-01-17T07:46:31.448Z,4.39
2023-01-17T07:48:58.907Z,4.40
2023-01-17T07:51:26.372Z,4.41
2023-01-17T07:53:53.171Z,4.41
2023-01-17T07:56:19.985Z,4.42
2023-01-17T07:58:47.692Z,4.44
2023-01-17T08:01:16.017Z,4.46
2023-01-17T08:03:42.888Z,4.47
2023-01-17T08:06:20.246Z,4.47
2023-01-17T08:08:47.236Z,4.49
2023-01-17T08:11:14.427Z,4.49
2023-01-17T08:13:41.904Z,4.49
2023-01-17T08:16:12.491Z,4.49
2023-01-17T08:18:39.695Z,4.50
2023-01-17T08:21:13.072Z,4.52
2023-01-17T08:23:39.859Z,4.52
2023-01-17T08:26:06.734Z,4.53
2023-01-17T08:28:34.581Z,4.54
2023-01-17T08:31:09.117Z,4.57
2023-01-17T08:33:36.580Z,4.59
2023-01-17T08:36:03.607Z,4.60
2023-01-17T08:38:30.476Z,4.60
2023-01-17T08:41:01.349Z,4.63
2023-01-17T08:43:28.638Z,4.66
2023-01-17T08:45:56.283Z,4.67
2023-01-17T08:48:23.865Z,4.67
2023-01-17T08:50:50.683Z,4.68
2023-01-17T08:53:18.369Z,4.69
2023-01-17T08:55:45.140Z,4.69
2023-01-17T08:58:12.049Z,4.68
2023-01-17T09:00:39.816Z,4.66
2023-01-17T09:03:10.564Z,4.67
2023-01-17T09:05:37.399Z,4.67
2023-01-17T09:08:04.541Z,4.68
2023-01-17T09:10:31.395Z,4.69
2023-01-17T09:12:58.255Z,4.71
2023-01-17T09:15:26.020Z,4.72
2023-01-17T09:17:56.793Z,4.73
2023-01-17T09:20:24.587Z,4.74
2023-01-17T09:22:51.505Z,4.73
2023-01-17T09:25:18.383Z,4.74
2023-01-17T09:27:46.595Z,4.75
2023-01-17T09:30:13.973Z,4.76
2023-01-17T09:32:40.777Z,4.77
2023-01-17T09:35:08.868Z,4.77
2023-01-17T09:37:35.774Z,4.79
2023-01-17T09:40:02.544Z,4.81
2023-01-17T09:42:38.183Z,4.82
2023-01-17T09:45:05.525Z,4.82
2023-01-17T09:47:43.842Z,4.83
2023-01-17T09:50:31.251Z,4.84
2023-01-17T09:53:05.743Z,4.86
2023-01-17T09:55:37.418Z,4.87
2023-01-17T09:58:20.190Z,4.88
2023-01-17T10:00:59.262Z,4.89
2023-01-17T10:03:31.755Z,4.91
2023-01-17T13:25:51.592Z,5.51
2023-01-17T13:28:28.153Z,5.71
2023-01-17T13:31:48.485Z,5.76
2023-01-17T13:34:53.623Z,5.78
2023-01-17T13:37:36.010Z,5.77
2023-01-17T13:40:11.616Z,5.76
2023-01-17T13:42:50.390Z,5.74
2023-01-17T13:45:19.850Z,5.67
2023-01-17T13:47:46.671Z,5.58
2023-01-17T13:50:38.216Z,5.49
2023-01-17T13:53:44.043Z,5.38
2023-01-17T13:56:13.426Z,5.25
2023-01-17T13:58:55.261Z,5.17
2023-01-17T14:01:22.244Z,5.08
2023-01-17T14:03:51.174Z,5.01
2023-01-17T14:06:33.133Z,4.94
2023-01-17T14:09:08.685Z,4.88
2023-01-17T14:11:35.792Z,4.83
2023-01-17T14:14:40.220Z,4.77
2023-01-17T14:17:16.338Z,4.73
2023-01-17T14:19:46.381Z,4.70
2023-01-17T14:22:20.864Z,4.65
2023-01-17T14:25:10.107Z,4.62
2023-01-17T14:27:44.914Z,4.61
2023-01-17T14:30:33.407Z,4.60
2023-01-17T14:33:08.843Z,4.58
2023-01-17T14:35:36.887Z,4.56
2023-01-17T14:38:06.556Z,4.57
2023-01-17T14:40:34.278Z,4.56
2023-01-17T14:43:02.224Z,4.56
2023-01-17T14:45:31.092Z,4.56
2023-01-17T14:47:58.725Z,4.56
2023-01-17T14:50:27.687Z,4.59
2023-01-17T14:53:13.530Z,4.60
2023-01-17T14:55:55.242Z,4.61
2023-01-17T14:58:28.318Z,4.59
2023-01-17T15:01:03.692Z,4.60
2023-01-17T15:03:34.078Z,4.62
2023-01-17T15:06:09.974Z,4.62
2023-01-17T15:08:36.990Z,4.63
2023-01-17T15:11:06.477Z,4.64
2023-01-17T15:13:43.936Z,4.66
2023-01-17T15:16:30.205Z,4.70
2023-01-17T15:18:57.456Z,4.71
2023-01-17T15:21:32.329Z,4.74
2023-01-17T15:24:03.532Z,4.75
2023-01-17T15:26:34.683Z,4.76
2023-01-17T15:29:07.587Z,4.79
2023-01-17T15:32:17.903Z,4.82
2023-01-17T15:34:46.281Z,4.82
2023-01-17T15:37:36.445Z,4.83
2023-01-17T15:40:24.300Z,4.84
2023-01-17T15:42:53.825Z,4.83
2023-01-17T15:45:23.870Z,4.81
2023-01-17T15:47:51.412Z,4.78
2023-01-17T15:50:41.537Z,4.77
2023-01-17T15:53:31.132Z,4.77
2023-01-17T15:55:58.472Z,4.74
2023-01-17T15:58:28.903Z,4.73
2023-01-17T16:00:56.352Z,4.72
2023-01-17T16:03:31.481Z,4.72
2023-01-17T16:06:00.520Z,4.71
2023-01-17T16:08:34.239Z,4.72
2023-01-17T16:11:02.947Z,4.74
2023-01-17T16:13:32.586Z,4.76
2023-01-17T16:16:10.549Z,4.79
2023-01-17T16:18:39.007Z,4.81
2023-01-17T16:21:15.707Z,4.81
2023-01-17T16:23:42.998Z,4.81
2023-01-17T16:26:12.212Z,4.81
2023-01-17T16:28:39.190Z,4.81
2023-01-17T16:31:06.467Z,4.80
2023-01-17T16:33:33.910Z,4.78
2023-01-17T16:36:01.414Z,4.76
2023-01-17T16:38:28.447Z,4.74
2023-01-17T16:40:57.545Z,4.72
2023-01-17T16:43:24.533Z,4.71
2023-01-17T16:45:53.251Z,4.71
2023-01-17T16:48:20.520Z,4.71
2023-01-17T16:50:50.823Z,4.71
2023-01-17T16:53:23.425Z,4.71
2023-01-17T16:55:53.622Z,4.72
2023-01-17T16:58:20.976Z,4.74
2023-01-17T17:00:47.915Z,4.74
2023-01-17T17:03:19.585Z,4.75
2023-01-17T17:05:53.048Z,4.76
2023-01-17T17:08:19.940Z,4.78
2023-01-17T17:10:46.853Z,4.79
2023-01-17T17:13:13.738Z,4.80
2023-01-17T17:15:44.017Z,4.79
2023-01-17T17:18:15.505Z,4.79
2023-01-17T17:20:42.833Z,4.82
2023-01-17T17:23:10.337Z,4.83
2023-01-17T17:25:37.592Z,4.85
2023-01-17T17:28:05.445Z,4.88
2023-01-17T17:30:32.548Z,4.91
2023-01-17T17:32:59.664Z,4.97
2023-01-17T17:35:26.966Z,5.08
2023-01-17T17:37:56.283Z,5.20
2023-01-17T17:40:23.237Z,5.31
2023-01-17T17:42:50.877Z,5.43
2023-01-17T17:45:17.885Z,5.55
2023-01-17T17:47:46.808Z,5.64
2023-01-17T17:50:14.780Z,5.72
2023-01-17T17:52:44.190Z,5.80
2023-01-17T17:55:19.155Z,5.87
2023-01-17T17:57:46.902Z,5.94
2023-01-17T18:00:15.294Z,6.00
2023-01-17T18:02:42.227Z,6.06
2023-01-17T18:05:10.538Z,6.10
2023-01-17T18:07:37.965Z,6.13
2023-01-17T18:10:05.595Z,6.16
2023-01-17T18:12:32.958Z,6.20
2023-01-17T18:14:59.882Z,6.23
2023-01-17T18:17:27.071Z,6.27
2023-01-17T18:19:53.981Z,6.29
2023-01-17T18:22:20.892Z,6.31
2023-01-17T18:24:47.882Z,6.34
2023-01-17T18:27:14.780Z,6.36
2023-01-17T18:29:41.745Z,6.38
2023-01-17T18:32:09.119Z,6.39
2023-01-17T18:34:42.646Z,6.38
2023-01-17T18:37:20.539Z,6.40
2023-01-17T18:39:49.797Z,6.41
2023-01-17T18:42:21.746Z,6.43
2023-01-17T18:45:01.496Z,6.45
2023-01-17T18:48:02.304Z,6.47
2023-01-17T18:54:52.263Z,6.54
2023-01-17T18:57:39.062Z,6.56
2023-01-17T19:00:23.403Z,6.57
2023-01-17T19:02:51.408Z,6.58
2023-01-17T19:05:21.771Z,6.60
2023-01-17T19:07:50.132Z,6.60
2023-01-17T19:10:44.570Z,6.60
2023-01-17T19:13:24.767Z,6.59
2023-01-17T19:15:52.620Z,6.60
2023-01-17T19:18:43.458Z,6.61
2023-01-17T19:21:12.632Z,6.62
2023-01-17T19:23:39.710Z,6.62
2023-01-17T20:04:07.787Z,6.63
2023-01-17T20:06:35.840Z,6.80
2023-01-17T20:09:03.539Z,6.82
2023-01-17T20:11:30.354Z,6.84
2023-01-17T20:13:58.453Z,6.85
2023-01-17T20:16:26.575Z,6.85
2023-01-17T20:18:53.506Z,6.85
2023-01-17T20:21:24.434Z,6.84
2023-01-17T20:23:52.016Z,6.83
2023-01-17T20:26:20.729Z,6.82
2023-01-17T20:28:48.923Z,6.80
2023-01-17T20:31:18.076Z,6.79
2023-01-17T20:33:45.510Z,6.78
2023-01-17T20:36:15.057Z,6.78
2023-01-17T20:38:45.192Z,6.78
2023-01-17T20:41:15.810Z,6.76
2023-01-17T20:43:43.526Z,6.74
2023-01-17T20:46:10.387Z,6.72
2023-01-17T20:48:39.140Z,6.70
2023-01-17T20:51:07.330Z,6.69
2023-01-17T20:53:34.990Z,6.67
2023-01-17T20:56:01.834Z,6.64
2023-01-17T20:58:28.907Z,6.61
2023-01-17T21:00:56.294Z,6.60
2023-01-17T21:03:24.083Z,6.60
2023-01-17T21:05:51.327Z,6.61
2023-01-17T21:08:18.764Z,6.60
2023-01-17T21:10:48.001Z,6.59
2023-01-17T21:13:15.148Z,6.58
2023-01-17T21:15:43.530Z,6.56
2023-01-17T21:18:10.350Z,6.55
2023-01-17T21:20:37.144Z,6.54
2023-01-17T21:23:08.532Z,6.53
2023-01-17T21:25:36.239Z,6.53
2023-01-17T21:28:03.425Z,6.53
2023-01-17T21:30:30.185Z,6.54
2023-01-17T21:32:56.977Z,6.53
2023-01-17T21:35:23.737Z,6.52
2023-01-17T21:37:50.654Z,6.51
2023-01-17T21:40:18.688Z,6.49
2023-01-17T21:42:45.544Z,6.48
2023-01-17T21:45:12.287Z,6.47
2023-01-17T21:47:41.093Z,6.44
2023-01-17T21:50:09.442Z,6.42
2023-01-17T21:52:36.254Z,6.41
2023-01-17T21:55:22.314Z,6.39
2023-01-17T21:58:07.859Z,6.36
2023-01-17T22:00:34.692Z,6.34
2023-01-17T22:03:01.494Z,6.32
2023-01-17T22:05:28.364Z,6.29
2023-01-17T22:08:15.351Z,6.27
2023-01-17T22:10:45.153Z,6.25
2023-01-17T22:13:15.592Z,6.23
2023-01-17T22:15:42.443Z,6.21
2023-01-17T22:18:12.404Z,6.19
2023-01-17T22:20:41.325Z,6.19
2023-01-17T22:23:08.945Z,6.19
2023-01-17T22:25:36.661Z,6.18
2023-01-17T22:28:04.051Z,6.17
2023-01-17T22:30:30.913Z,6.14
2023-01-17T22:32:58.313Z,6.14
2023-01-17T22:35:25.402Z,6.13
2023-01-17T22:37:52.594Z,6.11
2023-01-17T22:40:19.399Z,6.09
2023-01-17T22:42:46.264Z,6.07
2023-01-17T22:45:13.055Z,6.04
2023-01-17T22:47:40.352Z,6.02
2023-01-17T22:50:07.514Z,6.00
2023-01-17T22:52:35.792Z,6.00
2023-01-17T22:55:02.559Z,5.98
2023-01-17T22:57:29.312Z,5.95
2023-01-17T22:59:56.056Z,5.95
2023-01-17T23:02:22.820Z,5.93
2023-01-17T23:04:49.548Z,5.92
2023-01-17T23:07:16.345Z,5.93
2023-01-17T23:09:43.130Z,5.91
2023-01-17T23:12:10.406Z,5.88
2023-01-17T23:15:00.405Z,5.85
2023-01-17T23:17:46.057Z,5.79
2023-01-17T23:20:14.419Z,5.75
2023-01-17T23:22:41.255Z,5.71
2023-01-17T23:25:12.503Z,5.66
2023-01-17T23:28:00.117Z,5.64
2023-01-17T23:30:37.725Z,5.61
2023-01-17T23:33:06.128Z,5.59
2023-01-17T23:35:36.759Z,5.59
2023-01-17T23:38:23.643Z,5.59
2023-01-17T23:41:09.331Z,5.59
2023-01-17T23:43:36.402Z,5.57
2023-01-17T23:46:03.771Z,5.54
2023-01-17T23:48:30.658Z,5.52
2023-01-17T23:50:59.189Z,5.50
2023-01-17T23:53:26.111Z,5.49
2023-01-17T23:55:55.139Z,5.49
2023-01-17T23:58:25.701Z,5.48
